Flight Track Log - Related Links

Times and Time Zones

All times are in EDT time to prevent confusion due to time zone crossing. See the LOF3388 flight status page for this flight to view local times or setup timezone preferences in your user account.

Time Position Orientation Groundspeed Altitude Reporting Facility
EDT Latitude Longitude Course Direction KTS MPH feet Rate Location/Type
Sun 08:35:52 PM 38.9667 -77.5167 303° West 183 211 2,000  Level Potomac TRACON
Sun 08:36:52 PM 39.0000 -77.5833 314° West 243 280 3,600 2,250 Climbing Potomac TRACON
Sun 08:37:52 PM 39.0500 -77.6500 346° North 255 293 6,500 2,713 Climbing Potomac TRACON
Sun 08:38:47 PM 39.1000 -77.6667 57° Northeast 264 304 8,800 1,736 Climbing Potomac TRACON
Sun 08:39:53 PM 39.1500 -77.5667 67° East 302 348 10,000 600 Climbing Potomac TRACON
Sun 08:40:47 PM 39.1833 -77.4667 116° Southeast 356 410 10,000  Level Potomac TRACON
Sun 08:41:53 PM 39.1333 -77.3333 110° East 344 396 10,000 238 Level Potomac TRACON
Sun 08:42:53 PM 39.1000 -77.2167 90° East 344 396 10,500 1,000 Climbing Potomac TRACON
Sun 08:44:11 PM 39.1000 -77.0842 84° East 362 417 12,300 1,554 Climbing Washington Center
Sun 08:45:12 PM 39.1100 -76.9558 86° East 356 410 14,100 1,785 Climbing Washington Center
Sun 08:46:12 PM 39.1175 -76.8303 86° East 350 403 15,900 1,537 Climbing Washington Center
Sun 08:47:13 PM 39.1250 -76.7019 86° East 350 403 17,200 1,311 Climbing Washington Center
Sun 08:48:11 PM 39.1325 -76.5708 85° East 356 410 18,500 1,289 Climbing Washington Center
Sun 08:49:14 PM 39.1417 -76.4344 86° East 368 423 19,800 1,350 Climbing Washington Center
Sun 08:50:11 PM 39.1489 -76.2928 82° East 380 437 21,200 1,385 Climbing Washington Center
Sun 08:51:11 PM 39.1642 -76.1511 82° East 391 450 22,500 1,041 Climbing Washington Center
Sun 08:52:12 PM 39.1794 -76.0067 74° East 396 456 23,300 1,041 Climbing Washington Center
Sun 08:53:12 PM 39.2111 -75.8622 46° Northeast 409 471 24,600 1,240 Climbing Washington Center
Sun 08:54:13 PM 39.2864 -75.7606 45° Northeast 379 436 25,800 1,160 Climbing Washington Center
Sun 08:55:11 PM 39.3636 -75.6614 44° Northeast 384 442 26,900 605 Climbing Washington Center
Sun 08:56:12 PM 39.4447 -75.5594 46° Northeast 389 448 27,000 50 Climbing Washington Center
Sun 08:57:12 PM 39.5258 -75.4489 47° Northeast 405 466 27,000  Level Washington Center
Sun 09:01:23 PM 39.8850 -74.9533 62° Northeast 457 526 27,000  Level New York Center
Sun 09:07:24 PM 40.2564 -74.0236 41° Northeast 483 556 27,000 -74 Level New York Center
Sun 09:12:14 PM 40.6778 -73.5428 21° North 433 498 26,200 -326 Descending Boston Center
Sun 09:13:14 PM 40.7803 -73.4897 30° Northeast 411 473 25,100 -1,100 Descending Boston Center
Sun 09:14:14 PM 40.8706 -73.4200 46° Northeast 384 442 24,000 -550 Descending Boston Center
Sun 09:15:14 PM 40.9467 -73.3139 49° Northeast 376 433 24,000 -300 Level Boston Center
Sun 09:16:14 PM 41.0203 -73.2022 49° Northeast 383 441 23,400 -500 Descending Boston Center
Sun 09:17:14 PM 41.0939 -73.0900 48° Northeast 395 455 23,000 -200 Descending Boston Center
Sun 09:18:14 PM 41.1675 -72.9806 52° Northeast 395 455 23,000  Level Boston Center
Sun 09:19:14 PM 41.2389 -72.8569 63° Northeast 406 467 23,000  Level Boston Center
Sun 09:20:14 PM 41.2997 -72.6997 63° Northeast 418 481 23,000  Level Boston Center
Sun 09:21:14 PM 41.3478 -72.5728 65° Northeast 423 487 23,000 -100 Level Boston Center
Sun 09:22:14 PM 41.3981 -72.4319 65° Northeast 418 481 22,800 -950 Descending Boston Center
Sun 09:23:14 PM 41.4542 -72.2739 64° Northeast 423 487 21,100 -1,550 Descending Boston Center
Sun 09:24:14 PM 41.5058 -72.1353 62° Northeast 418 481 19,700 -1,350 Descending Boston Center
Sun 09:25:14 PM 41.5514 -72.0183 68° East 400 460 18,400 -1,300 Descending Boston Center
Sun 09:26:14 PM 41.5967 -71.8711 69° East 391 450 17,100 -1,300 Descending Boston Center
Sun 09:27:14 PM 41.6294 -71.7569 70° East 371 427 15,800 -1,300 Descending Boston Center
Sun 09:28:14 PM 41.6658 -71.6231 68° East 357 411 14,500 -1,100 Descending Boston Center
Sun 09:29:14 PM 41.7044 -71.4975 64° Northeast 351 404 13,600 -900 Descending Boston Center
Sun 09:30:14 PM 41.7433 -71.3911 59° Northeast 351 404 12,700 -950 Descending Boston Center
Sun 09:31:14 PM 41.7961 -71.2733 58° Northeast 341 392 11,700 -850 Descending Boston Center
Sun 09:32:14 PM 41.8411 -71.1778 61° Northeast 334 384 11,000 -350 Descending Boston Center
Sun 09:33:14 PM 41.8878 -71.0653 60° Northeast 315 362 11,000  Level Boston Center
Sun 09:34:14 PM 41.9261 -70.9750 63° Northeast 310 357 11,000 -200 Level Boston Center
Sun 09:35:14 PM 41.9683 -70.8653 58° Northeast 310 357 10,600 -950 Descending Boston Center
Sun 09:36:14 PM 42.0069 -70.7806 50° Northeast 290 334 9,100 -1,300 Descending Boston Center
Sun 09:37:14 PM 42.0536 -70.7067 38° Northeast 268 308 8,000 -750 Descending Boston Center
Sun 09:38:14 PM 42.1092 -70.6489 32° Northeast 251 289 7,600 -1,086 Descending Boston Center
Sun 09:39:10 PM 42.1667 -70.6000 20° North 245 282 5,900 -1,345 Descending Boston TRACON
Sun 09:40:10 PM 42.2333 -70.5667 10° North 239 275 5,000 -450 Descending Boston TRACON
Sun 09:41:10 PM 42.3000 -70.5500 312° West 250 288 5,000 -474 Level Boston TRACON
Sun 09:42:04 PM 42.3333 -70.6000 315° West 246 283 4,100 -1,000 Descending Boston TRACON
Sun 09:43:04 PM 42.3833 -70.6667 315° West 249 287 3,100 -550 Descending Boston TRACON
Sun 09:44:04 PM 42.4333 -70.7333 300° West 247 284 3,000 -42 Descending Boston TRACON
Sun 09:45:28 PM 42.4833 -70.8500 270° West 249 287 3,000 -261 Level Boston TRACON
Sun 09:46:22 PM 42.4833 -70.9333 216° Southwest 204 235 2,400 -737 Descending Boston TRACON
Sun 09:47:22 PM 42.4500 -70.9667 200° South 179 206 1,600 -722 Descending Boston TRACON
Sun 09:48:10 PM 42.4167 -70.9833 200° South 134 154 1,100 -632 Descending Boston TRACON
Sun 09:49:16 PM 42.3833 -71.0000 200° South 122 140 400 -636 Descending Boston TRACON

Login

Don't have an account? Register now (free) for customized features, flight alerts, and more!